createdAt,value
2022-12-05T00:00:40.451Z,101281.72
2022-12-05T00:03:13.246Z,101268.72
2022-12-05T00:05:46.085Z,101295.06
2022-12-05T00:08:19.383Z,101298.47
2022-12-05T00:10:53.643Z,101303.56
2022-12-05T00:13:26.427Z,101295.16
2022-12-05T00:15:59.177Z,101298.34
2022-12-05T00:18:33.577Z,101273.28
2022-12-05T00:21:07.295Z,101277.84
2022-12-05T00:23:40.122Z,101296.56
2022-12-05T00:26:15.449Z,101283.44
2022-12-05T00:28:48.403Z,101263.66
2022-12-05T00:31:23.539Z,101298.63
2022-12-05T00:33:57.367Z,101295.06
2022-12-05T00:36:32.188Z,101263.28
2022-12-05T00:39:07.516Z,101290.50
2022-12-05T00:41:42.067Z,101293.13
2022-12-05T00:44:15.020Z,101287.22
2022-12-05T00:46:47.842Z,101289.84
2022-12-05T00:49:20.711Z,101293.34
2022-12-05T00:51:53.964Z,101274.84
2022-12-05T00:54:26.764Z,101284.53
2022-12-05T00:57:01.011Z,101296.16
2022-12-05T00:59:33.832Z,101289.78
2022-12-05T01:02:06.821Z,101265.91
2022-12-05T01:04:39.652Z,101287.22
2022-12-05T01:07:12.427Z,101288.72
2022-12-05T01:09:45.172Z,101280.94
2022-12-05T01:12:19.352Z,101293.34
2022-12-05T01:14:52.119Z,101294.91
2022-12-05T01:17:24.882Z,101275.94
2022-12-05T01:19:57.948Z,101291.34
2022-12-05T01:22:30.933Z,101296.75
2022-12-05T01:25:05.705Z,101287.47
2022-12-05T01:27:39.848Z,101282.56
2022-12-05T01:30:14.454Z,101308.16
2022-12-05T01:32:47.199Z,101291.97
2022-12-05T01:35:20.041Z,101308.22
2022-12-05T01:37:53.106Z,101281.19
2022-12-05T01:40:26.442Z,101282.91
2022-12-05T01:43:00.772Z,101309.72
2022-12-05T01:45:35.980Z,101305.31
2022-12-05T01:48:12.599Z,101297.41
2022-12-05T01:50:46.160Z,101301.81
2022-12-05T01:53:20.206Z,101294.44
2022-12-05T01:55:54.468Z,101273.69
2022-12-05T01:58:35.201Z,101309.69
2022-12-05T02:01:08.079Z,101268.34
2022-12-05T02:03:42.500Z,101290.63
2022-12-05T02:06:15.613Z,101277.06
2022-12-05T02:08:48.668Z,101307.94
2022-12-05T02:11:22.788Z,101317.72
2022-12-05T02:14:14.863Z,101317.47
2022-12-05T02:16:57.647Z,101311.72
2022-12-05T02:19:53.532Z,101307.94
2022-12-05T02:22:57.124Z,101306.91
2022-12-05T02:25:50.241Z,101315.34
2022-12-05T02:28:45.334Z,101319.97
2022-12-05T02:31:28.412Z,101319.41
2022-12-05T02:34:06.861Z,101320.25
2022-12-05T02:36:45.669Z,101320.03
2022-12-05T02:39:25.334Z,101290.41
2022-12-05T02:42:05.020Z,101320.34
2022-12-05T02:44:44.146Z,101323.59
2022-12-05T02:47:23.279Z,101317.31
2022-12-05T02:49:58.473Z,101314.81
2022-12-05T02:52:34.606Z,101326.16
2022-12-05T02:55:09.324Z,101304.00
2022-12-05T02:57:47.087Z,101329.84
2022-12-05T03:00:20.272Z,101319.97
2022-12-05T03:03:00.488Z,101322.97
2022-12-05T03:05:40.624Z,101324.44
2022-12-05T03:08:19.506Z,101326.28
2022-12-05T03:10:54.094Z,101308.78
2022-12-05T03:13:30.268Z,101317.59
2022-12-05T03:16:08.877Z,101318.91
2022-12-05T03:18:48.206Z,101310.88
2022-12-05T03:21:31.412Z,101280.34
2022-12-05T03:24:07.606Z,101304.22
2022-12-05T03:26:51.206Z,101294.91
2022-12-05T03:29:31.194Z,101303.34
2022-12-05T03:32:09.272Z,101293.59
2022-12-05T03:34:56.158Z,101263.34
2022-12-05T03:37:36.955Z,101282.19
2022-12-05T03:40:15.819Z,101305.06
2022-12-05T03:43:02.618Z,101309.31
2022-12-05T03:45:39.537Z,101310.34
2022-12-05T03:48:19.487Z,101313.03
2022-12-05T03:50:55.186Z,101313.66
2022-12-05T03:53:32.958Z,101315.84
2022-12-05T03:56:11.377Z,101315.50
2022-12-05T03:58:47.470Z,101317.22
2022-12-05T04:01:23.908Z,101305.44
2022-12-05T04:04:01.843Z,101271.91
2022-12-05T04:06:40.349Z,101316.41
2022-12-05T04:09:19.523Z,101328.53
2022-12-05T04:11:58.633Z,101313.81
2022-12-05T04:14:36.320Z,101313.66
2022-12-05T04:17:14.610Z,101309.63
2022-12-05T04:20:07.347Z,101320.78
2022-12-05T04:22:42.355Z,101266.84
2022-12-05T04:25:33.490Z,101316.16
2022-12-05T04:28:28.034Z,101278.31
2022-12-05T04:31:06.752Z,101277.91
2022-12-05T04:33:45.166Z,101315.16
2022-12-05T04:36:24.058Z,101307.31
2022-12-05T04:39:02.534Z,101298.47
2022-12-05T04:41:40.753Z,101332.19
2022-12-05T04:44:18.130Z,101309.88
2022-12-05T04:46:54.829Z,101341.88
2022-12-05T04:49:30.523Z,101317.63
2022-12-05T04:52:08.168Z,101307.44
2022-12-05T04:54:46.437Z,101336.59
2022-12-05T04:57:23.101Z,101327.53
2022-12-05T04:59:57.828Z,101301.97
2022-12-05T05:02:33.339Z,101327.75
2022-12-05T05:05:14.149Z,101313.44
2022-12-05T05:07:50.342Z,101310.72
2022-12-05T05:10:32.098Z,101331.56
2022-12-05T05:13:05.061Z,101315.00
2022-12-05T05:15:38.011Z,101291.88
2022-12-05T05:18:11.188Z,101285.63
2022-12-05T05:20:44.022Z,101341.72
2022-12-05T05:23:16.853Z,101335.59
2022-12-05T05:25:54.877Z,101330.31
2022-12-05T05:28:27.788Z,101337.91
2022-12-05T05:31:03.281Z,101319.31
2022-12-05T05:33:36.809Z,101295.91
2022-12-05T05:36:11.997Z,101331.44
2022-12-05T05:38:46.478Z,101336.63
2022-12-05T05:41:23.566Z,101318.69
2022-12-05T05:43:57.176Z,101340.72
2022-12-05T05:46:31.435Z,101342.56
2022-12-05T05:49:05.063Z,101331.97
2022-12-05T05:51:37.953Z,101290.75
2022-12-05T05:54:11.465Z,101330.31
2022-12-05T05:56:45.604Z,101332.63
2022-12-05T05:59:18.377Z,101279.88
2022-12-05T06:01:51.183Z,101311.09
2022-12-05T06:04:24.043Z,101314.34
2022-12-05T06:06:56.848Z,101345.28
2022-12-05T06:09:29.673Z,101352.06
2022-12-05T06:12:03.951Z,101354.91
2022-12-05T06:14:36.949Z,101355.56
2022-12-05T06:17:09.834Z,101350.28
2022-12-05T06:19:42.769Z,101354.69
2022-12-05T06:22:15.598Z,101333.44
2022-12-05T06:24:48.466Z,101353.84
2022-12-05T06:27:22.671Z,101355.09
2022-12-05T06:29:55.774Z,101360.31
2022-12-05T06:32:28.895Z,101336.22
2022-12-05T06:35:07.742Z,101357.69
2022-12-05T06:37:40.581Z,101361.34
2022-12-05T06:40:14.038Z,101358.84
2022-12-05T06:42:48.248Z,101370.97
2022-12-05T06:45:21.403Z,101340.09
2022-12-05T06:47:54.382Z,101367.25
2022-12-05T06:50:27.221Z,101373.00
2022-12-05T06:53:00.019Z,101365.78
2022-12-05T06:55:32.800Z,101375.69
2022-12-05T06:58:06.938Z,101379.25
2022-12-05T07:00:57.290Z,101370.44
2022-12-05T07:03:30.138Z,101387.22
2022-12-05T07:06:03.417Z,101359.28
2022-12-05T07:08:36.997Z,101389.44
2022-12-05T07:11:09.786Z,101392.00
2022-12-05T07:13:43.891Z,101386.91
2022-12-05T07:16:16.735Z,101381.72
2022-12-05T07:18:50.092Z,101385.63
2022-12-05T07:21:22.940Z,101399.59
2022-12-05T07:23:56.098Z,101388.88
2022-12-05T07:26:28.906Z,101392.75
2022-12-05T07:29:03.097Z,101399.59
2022-12-05T07:31:36.911Z,101363.31
2022-12-05T07:34:09.760Z,101371.53
2022-12-05T07:36:42.691Z,101386.56
2022-12-05T07:39:16.120Z,101390.91
2022-12-05T07:41:48.927Z,101391.13
2022-12-05T07:44:24.440Z,101407.88
2022-12-05T07:46:57.185Z,101401.69
2022-12-05T07:49:30.192Z,101404.38
2022-12-05T07:52:03.044Z,101406.94
2022-12-05T07:54:35.801Z,101407.72
2022-12-05T07:57:08.691Z,101411.56
2022-12-05T07:59:42.876Z,101420.91
2022-12-05T08:02:15.831Z,101411.97
2022-12-05T08:04:48.690Z,101393.34
2022-12-05T08:07:21.497Z,101418.47
2022-12-05T08:09:54.329Z,101423.59
2022-12-05T08:12:27.112Z,101422.75
2022-12-05T08:15:01.332Z,101389.75
2022-12-05T08:17:34.541Z,101427.09
2022-12-05T08:20:08.739Z,101427.78
2022-12-05T08:22:41.571Z,101433.19
2022-12-05T08:25:14.403Z,101429.81
2022-12-05T08:27:47.147Z,101434.91
2022-12-05T08:30:21.333Z,101440.09
2022-12-05T08:32:54.083Z,101443.72
2022-12-05T08:35:26.830Z,101438.47
2022-12-05T08:37:59.575Z,101412.56
2022-12-05T08:40:32.381Z,101439.03
2022-12-05T08:43:05.362Z,101442.69
2022-12-05T08:45:39.580Z,101398.75
2022-12-05T08:48:12.381Z,101441.53
2022-12-05T08:50:45.300Z,101449.25
2022-12-05T08:53:18.449Z,101440.25
2022-12-05T08:55:51.585Z,101444.72
2022-12-05T08:58:24.334Z,101415.97
2022-12-05T09:01:04.994Z,101430.22
2022-12-05T09:03:37.869Z,101455.25
2022-12-05T09:06:13.146Z,101451.47
2022-12-05T09:08:46.517Z,101446.31
2022-12-05T09:11:21.102Z,101423.44
2022-12-05T09:13:55.783Z,101461.25
2022-12-05T09:16:36.920Z,101461.19
2022-12-05T09:19:14.169Z,101456.91
2022-12-05T09:21:47.211Z,101462.03
2022-12-05T09:24:20.188Z,101465.44
2022-12-05T09:26:53.112Z,101467.28
2022-12-05T09:29:28.737Z,101449.94
2022-12-05T09:32:03.767Z,101460.31
2022-12-05T09:34:37.161Z,101471.63
2022-12-05T09:37:30.904Z,101461.16
2022-12-05T09:40:03.663Z,101471.16
2022-12-05T09:42:44.091Z,101470.00
2022-12-05T09:45:24.865Z,101467.03
2022-12-05T09:48:02.375Z,101460.13
2022-12-05T09:50:41.149Z,101446.56
2022-12-05T09:53:25.590Z,101473.50
2022-12-05T09:56:04.619Z,101467.09
2022-12-05T09:58:44.283Z,101456.19
2022-12-05T10:01:34.248Z,101479.41
2022-12-05T10:04:28.485Z,101442.59
2022-12-05T10:07:11.270Z,101478.41
2022-12-05T10:09:53.940Z,101482.63
2022-12-05T10:12:44.060Z,101415.81
2022-12-05T10:15:24.100Z,101483.63
2022-12-05T10:18:02.366Z,101472.69
2022-12-05T10:20:44.435Z,101449.91
2022-12-05T10:23:49.029Z,101478.03
2022-12-05T10:26:17.392Z,101468.28
2022-12-05T10:28:57.197Z,101481.84
2022-12-05T10:31:33.300Z,101434.03
2022-12-05T10:34:14.778Z,101463.25
2022-12-05T10:36:57.547Z,101468.78
2022-12-05T10:39:30.549Z,101483.44
2022-12-05T10:42:04.142Z,101477.75
2022-12-05T10:44:38.190Z,101476.25
2022-12-05T10:47:12.056Z,101471.00
2022-12-05T10:49:45.312Z,101464.34
2022-12-05T10:52:19.746Z,101473.78
2022-12-05T10:54:57.890Z,101463.50
2022-12-05T10:57:31.357Z,101474.53
2022-12-05T11:00:12.957Z,101464.75
2022-12-05T11:02:49.371Z,101454.09
2022-12-05T11:05:30.525Z,101467.56
2022-12-05T11:08:04.955Z,101457.91
2022-12-05T11:10:40.853Z,101472.91
2022-12-05T11:13:17.390Z,101471.91
2022-12-05T11:15:55.380Z,101464.22
2022-12-05T11:18:31.708Z,101454.75
2022-12-05T11:21:13.109Z,101460.63
2022-12-05T11:23:47.414Z,101456.06
2022-12-05T11:26:35.530Z,101461.47
2022-12-05T11:29:30.419Z,101435.81
2022-12-05T11:32:05.470Z,101460.88
2022-12-05T11:34:43.670Z,101459.81
2022-12-05T11:37:24.506Z,101464.22
2022-12-05T11:39:58.787Z,101463.16
2022-12-05T11:42:41.998Z,101464.88
2022-12-05T11:45:34.089Z,101420.47
2022-12-05T11:48:26.587Z,101403.91
2022-12-05T11:51:14.884Z,101462.28
2022-12-05T11:54:56.859Z,101449.66
2022-12-05T11:57:30.722Z,101447.94
2022-12-05T12:00:10.601Z,101445.44
2022-12-05T12:03:32.571Z,101435.31
2022-12-05T12:06:20.556Z,101439.44
2022-12-05T12:09:12.677Z,101444.38
2022-12-05T12:11:53.318Z,101441.75
2022-12-05T12:14:35.493Z,101436.34
2022-12-05T12:17:20.413Z,101444.06
2022-12-05T12:20:05.198Z,101440.25
2022-12-05T12:22:51.228Z,101442.81
2022-12-05T12:25:34.516Z,101449.22
2022-12-05T12:28:21.013Z,101447.56
2022-12-05T12:31:07.141Z,101444.06
2022-12-05T12:33:46.749Z,101444.34
2022-12-05T12:36:27.146Z,101438.56
2022-12-05T12:39:26.910Z,101441.09
2022-12-05T12:42:13.916Z,101344.44
2022-12-05T12:45:06.986Z,101440.63
2022-12-05T12:47:52.795Z,101408.94
2022-12-05T12:50:28.821Z,101419.97
2022-12-05T12:53:28.719Z,101433.66
2022-12-05T12:56:12.215Z,101429.25
2022-12-05T12:58:51.306Z,101412.28
2022-12-05T13:01:34.650Z,101432.13
2022-12-05T13:04:14.743Z,101429.03
2022-12-05T13:06:52.583Z,101432.38
2022-12-05T13:09:29.681Z,101429.69
2022-12-05T13:12:10.922Z,101427.06
2022-12-05T13:14:49.646Z,101419.16
2022-12-05T13:17:24.363Z,101420.03
2022-12-05T13:19:58.804Z,101429.69
2022-12-05T13:22:32.644Z,101424.56
2022-12-05T13:25:06.168Z,101426.31
2022-12-05T13:27:38.919Z,101419.69
2022-12-05T13:30:19.362Z,101421.28
2022-12-05T13:32:58.157Z,101412.97
2022-12-05T13:35:52.866Z,101393.91
2022-12-05T13:38:48.703Z,101428.44
2022-12-05T13:41:38.930Z,101429.25
2022-12-05T13:44:15.278Z,101432.66
2022-12-05T13:46:51.358Z,101425.03
2022-12-05T13:49:36.062Z,101430.22
2022-12-05T13:52:15.530Z,101431.94
2022-12-05T13:54:59.438Z,101432.78
2022-12-05T13:57:55.201Z,101413.25
2022-12-05T14:00:31.111Z,101435.47
2022-12-05T14:03:07.188Z,101418.41
2022-12-05T14:05:43.028Z,101433.72
2022-12-05T14:08:54.235Z,101418.25
2022-12-05T14:11:27.048Z,101437.19
2022-12-05T14:14:04.553Z,101393.66
2022-12-05T14:16:45.298Z,101360.34
2022-12-05T14:19:45.826Z,101435.16
2022-12-05T14:22:49.877Z,101427.22
2022-12-05T14:25:54.656Z,101427.28
2022-12-05T14:29:04.828Z,101434.19
2022-12-05T14:31:48.588Z,101415.56
2022-12-05T14:34:25.762Z,101410.56
2022-12-05T14:37:04.765Z,101439.91
2022-12-05T14:39:41.640Z,101433.81
2022-12-05T14:42:26.365Z,101445.16
2022-12-05T14:45:02.115Z,101394.19
2022-12-05T14:47:37.702Z,101406.03
2022-12-05T14:50:36.076Z,101394.38
2022-12-05T14:53:35.125Z,101443.19
2022-12-05T14:56:17.153Z,101437.00
2022-12-05T14:58:57.353Z,101436.88
2022-12-05T15:01:34.272Z,101440.63
2022-12-05T15:04:17.291Z,101438.84
2022-12-05T15:06:54.743Z,101445.34
2022-12-05T15:09:40.476Z,101448.91
2022-12-05T15:12:17.680Z,101450.50
2022-12-05T15:15:00.985Z,101447.34
2022-12-05T15:17:39.772Z,101415.06
2022-12-05T15:20:17.910Z,101455.41
2022-12-05T15:22:50.766Z,101449.41
2022-12-05T15:25:27.717Z,101456.50
2022-12-05T15:28:04.184Z,101455.66
2022-12-05T15:30:40.620Z,101464.47
2022-12-05T15:33:14.353Z,101428.09
2022-12-05T15:35:51.502Z,101436.53
2022-12-05T15:38:29.203Z,101442.16
2022-12-05T15:41:03.523Z,101467.09
2022-12-05T15:43:37.251Z,101471.56
2022-12-05T15:46:25.997Z,101443.19
2022-12-05T15:49:00.592Z,101474.19
2022-12-05T15:51:37.844Z,101463.59
2022-12-05T15:54:16.297Z,101456.81
2022-12-05T15:56:54.101Z,101469.66
2022-12-05T15:59:31.394Z,101452.47
2022-12-05T16:02:16.215Z,101463.69
2022-12-05T16:04:52.773Z,101456.81
2022-12-05T16:07:29.048Z,101463.06
2022-12-05T16:10:03.079Z,101448.13
2022-12-05T16:12:39.836Z,101443.72
2022-12-05T16:15:15.925Z,101445.38
2022-12-05T16:17:55.794Z,101483.41
2022-12-05T16:20:34.032Z,101443.66
2022-12-05T16:23:25.566Z,101483.25
2022-12-05T16:26:25.580Z,101484.41
2022-12-05T16:28:59.594Z,101446.59
2022-12-05T16:31:34.210Z,101472.16
2022-12-05T16:34:15.826Z,101483.34
2022-12-05T16:36:50.482Z,101442.16
2022-12-05T16:39:24.468Z,101485.06
2022-12-05T16:41:57.798Z,101491.06
2022-12-05T16:45:04.627Z,101479.06
2022-12-05T16:47:55.944Z,101481.53
2022-12-05T16:50:34.866Z,101492.91
2022-12-05T16:53:22.259Z,101459.75
2022-12-05T16:55:55.497Z,101496.75
2022-12-05T16:58:31.512Z,101495.75
2022-12-05T17:01:06.993Z,101490.44
2022-12-05T17:03:39.805Z,101487.88
2022-12-05T17:06:13.944Z,101429.31
2022-12-05T17:08:46.899Z,101487.97
2022-12-05T17:11:22.677Z,101486.03
2022-12-05T17:13:56.715Z,101456.81
2022-12-05T17:16:30.088Z,101451.75
2022-12-05T17:19:02.979Z,101489.59
2022-12-05T17:21:38.050Z,101487.97
2022-12-05T17:24:17.175Z,101480.78
2022-12-05T17:26:49.912Z,101489.59
2022-12-05T17:29:23.018Z,101486.13
2022-12-05T17:31:55.827Z,101486.97
2022-12-05T17:34:30.199Z,101490.75
2022-12-05T17:37:04.375Z,101485.38
2022-12-05T17:39:37.438Z,101486.41
2022-12-05T17:42:10.179Z,101456.91
2022-12-05T17:44:43.017Z,101491.63
2022-12-05T17:47:15.838Z,101495.97
2022-12-05T17:49:48.620Z,101487.22
2022-12-05T17:52:22.923Z,101489.78
2022-12-05T17:54:56.351Z,101500.31
2022-12-05T17:57:29.384Z,101492.22
2022-12-05T18:00:02.195Z,101496.56
2022-12-05T18:02:40.704Z,101452.81
2022-12-05T18:05:14.931Z,101493.03
2022-12-05T18:07:49.239Z,101505.25
2022-12-05T18:10:25.331Z,101509.59
2022-12-05T18:12:58.165Z,101507.88
2022-12-05T18:15:31.008Z,101500.84
2022-12-05T18:18:05.853Z,101485.50
2022-12-05T18:20:38.636Z,101513.03
2022-12-05T18:23:12.915Z,101510.50
2022-12-05T18:25:46.933Z,101513.09
2022-12-05T18:28:20.894Z,101517.66
2022-12-05T18:31:05.111Z,101514.81
2022-12-05T18:33:38.019Z,101520.84
2022-12-05T18:36:12.743Z,101423.56
2022-12-05T18:38:52.744Z,101512.13
2022-12-05T18:41:26.559Z,101513.81
2022-12-05T18:43:59.391Z,101496.09
2022-12-05T18:46:32.374Z,101512.34
2022-12-05T18:49:06.036Z,101517.78
2022-12-05T18:51:39.546Z,101511.53
2022-12-05T18:54:13.867Z,101522.00
2022-12-05T18:56:50.150Z,101476.53
2022-12-05T18:59:23.619Z,101523.84
2022-12-05T19:01:56.585Z,101525.56
2022-12-05T19:04:29.841Z,101512.84
2022-12-05T19:07:02.777Z,101528.22
2022-12-05T19:09:37.265Z,101534.25
2022-12-05T19:12:10.501Z,101540.47
2022-12-05T19:14:43.387Z,101498.41
2022-12-05T19:17:16.241Z,101539.34
2022-12-05T19:19:49.095Z,101509.19
2022-12-05T19:22:22.004Z,101536.94
2022-12-05T19:24:56.129Z,101507.69
2022-12-05T19:27:28.932Z,101505.97
2022-12-05T19:30:06.430Z,101538.44
2022-12-05T19:32:42.125Z,101529.84
2022-12-05T19:35:14.997Z,101520.47
2022-12-05T19:37:48.052Z,101521.03
2022-12-05T19:40:23.361Z,101537.31
2022-12-05T19:42:56.184Z,101528.88
2022-12-05T19:45:29.050Z,101531.44
2022-12-05T19:48:01.851Z,101534.06
2022-12-05T19:50:34.665Z,101500.59
2022-12-05T19:53:10.052Z,101497.66
2022-12-05T19:55:44.952Z,101533.88
2022-12-05T19:58:18.080Z,101528.78
2022-12-05T20:00:52.304Z,101537.25
2022-12-05T20:03:25.227Z,101472.69
2022-12-05T20:06:00.141Z,101537.19
2022-12-05T20:08:33.493Z,101535.34
2022-12-05T20:11:10.330Z,101533.69
2022-12-05T20:13:47.879Z,101534.59
2022-12-05T20:16:23.838Z,101521.53
2022-12-05T20:18:59.205Z,101530.94
2022-12-05T20:21:33.661Z,101530.28
2022-12-05T20:24:07.763Z,101540.72
2022-12-05T20:26:43.660Z,101532.88
2022-12-05T20:29:16.407Z,101540.41
2022-12-05T20:31:52.057Z,101533.56
2022-12-05T20:34:25.084Z,101542.25
2022-12-05T20:36:57.872Z,101548.44
2022-12-05T20:39:30.681Z,101546.84
2022-12-05T20:42:05.067Z,101549.41
2022-12-05T20:44:37.951Z,101546.91
2022-12-05T20:47:10.747Z,101537.19
2022-12-05T20:49:43.520Z,101482.41
2022-12-05T20:52:16.995Z,101531.84
2022-12-05T20:54:50.234Z,101541.34
2022-12-05T20:57:24.424Z,101531.13
2022-12-05T20:59:57.507Z,101538.03
2022-12-05T21:02:30.522Z,101538.03
2022-12-05T21:05:04.370Z,101520.72
2022-12-05T21:07:37.970Z,101531.06
2022-12-05T21:10:11.596Z,101539.63
2022-12-05T21:12:45.811Z,101541.34
2022-12-05T21:15:18.597Z,101532.47
2022-12-05T21:17:51.339Z,101536.06
2022-12-05T21:20:24.206Z,101536.59
2022-12-05T21:22:56.993Z,101533.97
2022-12-05T21:25:31.181Z,101536.09
2022-12-05T21:28:05.366Z,101532.59
2022-12-05T21:30:38.170Z,101469.78
2022-12-05T21:33:11.037Z,101525.69
2022-12-05T21:35:43.823Z,101517.00
2022-12-05T21:38:16.615Z,101530.63
2022-12-05T21:40:49.389Z,101530.53
2022-12-05T21:43:23.661Z,101520.03
2022-12-05T21:45:56.916Z,101523.53
2022-12-05T21:48:30.057Z,101517.41
2022-12-05T21:51:06.695Z,101524.25
2022-12-05T21:53:39.606Z,101512.00
2022-12-05T21:56:15.433Z,101506.16
2022-12-05T21:58:50.317Z,101523.53
2022-12-05T22:01:25.551Z,101522.69
2022-12-05T22:04:00.614Z,101481.31
2022-12-05T22:06:34.266Z,101523.53
2022-12-05T22:09:07.218Z,101466.53
2022-12-05T22:11:39.956Z,101489.28
2022-12-05T22:14:14.149Z,101516.47
2022-12-05T22:16:47.022Z,101523.34
2022-12-05T22:19:19.828Z,101486.47
2022-12-05T22:21:52.802Z,101527.09
2022-12-05T22:24:25.668Z,101501.09
2022-12-05T22:26:58.427Z,101523.34
2022-12-05T22:29:32.596Z,101526.75
2022-12-05T22:32:05.548Z,101528.59
2022-12-05T22:34:38.357Z,101521.69
2022-12-05T22:37:11.117Z,101527.75
2022-12-05T22:39:44.135Z,101527.63
2022-12-05T22:42:16.900Z,101500.03
2022-12-05T22:44:50.995Z,101523.34
2022-12-05T22:47:24.411Z,101522.34
2022-12-05T22:49:57.644Z,101518.88
2022-12-05T22:52:30.925Z,101498.25
2022-12-05T22:55:04.536Z,101519.59
2022-12-05T22:57:37.273Z,101519.66
2022-12-05T23:00:13.018Z,101485.41
2022-12-05T23:02:45.947Z,101503.19
2022-12-05T23:05:18.753Z,101517.94
2022-12-05T23:07:51.594Z,101515.28
2022-12-05T23:10:24.594Z,101478.19
2022-12-05T23:12:57.384Z,101511.75
2022-12-05T23:15:31.599Z,101510.78
2022-12-05T23:18:04.851Z,101508.09
2022-12-05T23:20:37.681Z,101495.09
2022-12-05T23:23:10.592Z,101500.25
2022-12-05T23:25:43.790Z,101507.13
2022-12-05T23:28:16.589Z,101453.72
2022-12-05T23:30:50.706Z,101500.03
2022-12-05T23:33:23.440Z,101503.59
2022-12-05T23:35:56.309Z,101500.94
2022-12-05T23:38:29.301Z,101501.75
2022-12-05T23:41:03.520Z,101458.00
2022-12-05T23:43:37.471Z,101499.25
2022-12-05T23:46:12.824Z,101501.88
2022-12-05T23:48:46.041Z,101456.09
2022-12-05T23:51:20.537Z,101493.25
2022-12-05T23:53:55.055Z,101462.34
2022-12-05T23:56:30.301Z,101492.34
2022-12-05T23:59:05.893Z,101503.72
